Cost, Texas
Current Conditions -  °F | °C
As of 2:15 AM on Monday 24 Nov 2014 (Local Time) from KT20 Reporting Station
Thunderstorm Thunderstorm  
Wind Chill: 56°   Ceiling: Unl
Heat Index: 56°   Visibility: 10mi
Dew Point: 41°   Wind: 12mph
Humidity: 58%   Direction: 360°N
Pressure: 29.87"   Gusts: 18mph
Location:  29.44°N, 97.53°W
Report Text: KT20 240815Z AUTO 36010G16KT 10SM VCTS CLR 13/05 A2987 RMK AO2 T01310050
Loading
Personal Weather Stations






























Interactive Weather Map New forecast layout! Learn more

10-Day Weather Forecast

Advertisements
Track Severe Weather on mobile